Time;durP1;ratioP1;P1;durP2;ratioP2;P2;SDS_P1;SDS_P2;PMS_P1;PMS_P2;Temp;Humidity;BMP_temperature;BMP_pressure;BME280_temperature;BME280_humidity;BME280_pressure;Samples;Min_cycle;Max_cycle;Signal;HPM_P1;HPM_P2
2021/04/01 00:00:47;;;;;;;33.40;20.05;;;;;;;11.50;59.11;99237.05;114473;1206;103102;-75
2021/04/01 00:03:15;;;;;;;36.13;21.77;;;;;;;11.54;59.39;99235.86;114505;1208;103056;-75
2021/04/01 00:05:42;;;;;;;40.55;22.50;;;;;;;11.57;59.49;99230.31;114467;1206;103156;-75
2021/04/01 00:08:11;;;;;;;38.70;23.10;;;;;;;11.59;59.40;99220.39;114387;1206;103079;-75
2021/04/01 00:10:41;;;;;;;40.30;24.65;;;;;;;11.60;59.41;99226.55;114524;1206;103101;-76
2021/04/01 00:13:09;;;;;;;39.23;20.93;;;;;;;11.63;59.40;99218.33;114502;1206;103201;-75
2021/04/01 00:15:40;;;;;;;37.95;22.55;;;;;;;11.64;59.45;99216.50;114505;1206;103104;-76
2021/04/01 00:18:15;;;;;;;37.20;21.57;;;;;;;11.66;59.57;99217.23;114504;1206;103182;-76
2021/04/01 00:20:43;;;;;;;34.25;20.70;;;;;;;11.66;59.63;99222.56;114492;1206;103095;-76
2021/04/01 00:23:11;;;;;;;32.00;19.00;;;;;;;11.65;59.51;99216.41;114515;1206;103209;-76
2021/04/01 00:25:39;;;;;;;34.70;20.90;;;;;;;11.61;59.66;99210.44;114537;1206;103102;-76
2021/04/01 00:28:07;;;;;;;35.25;19.50;;;;;;;11.61;59.68;99210.44;114543;1206;103059;-75
2021/04/01 00:30:34;;;;;;;35.53;20.00;;;;;;;11.60;59.75;99200.77;114456;1206;103177;-75
2021/04/01 00:33:02;;;;;;;35.55;20.05;;;;;;;11.61;59.79;99199.78;114475;1206;103177;-74
2021/04/01 00:35:28;;;;;;;36.50;19.97;;;;;;;11.64;59.82;99200.52;114521;1206;103098;-75
2021/04/01 00:37:55;;;;;;;34.70;20.25;;;;;;;11.64;59.76;99196.05;114500;1206;103197;-75
2021/04/01 00:40:24;;;;;;;34.70;20.30;;;;;;;11.66;59.84;99193.26;114500;1206;103162;-74
2021/04/01 00:42:51;;;;;;;32.95;20.50;;;;;;;11.65;59.98;99188.89;114535;1206;103344;-75
2021/04/01 00:45:20;;;;;;;33.25;19.25;;;;;;;11.66;60.03;99187.93;114486;1206;103097;-76
2021/04/01 00:47:50;;;;;;;33.13;20.07;;;;;;;11.66;59.96;99180.80;114532;1206;103069;-76
2021/04/01 00:50:22;;;;;;;35.00;20.90;;;;;;;11.66;60.08;99183.47;114489;1206;103213;-75
2021/04/01 00:52:49;;;;;;;32.20;19.20;;;;;;;11.67;59.99;99168.31;114484;1206;103115;-77
2021/04/01 00:55:17;;;;;;;34.30;20.35;;;;;;;11.68;59.86;99178.01;114493;1206;103348;-76
2021/04/01 00:57:47;;;;;;;34.15;20.15;;;;;;;11.68;60.01;99170.02;114509;1206;103142;-76
2021/04/01 01:00:19;;;;;;;29.60;17.70;;;;;;;11.66;59.99;99170.14;114520;1206;103168;-76
2021/04/01 01:02:46;;;;;;;32.50;18.00;;;;;;;11.64;60.20;99163.22;114512;1206;103102;-77
2021/04/01 01:05:15;;;;;;;32.15;18.30;;;;;;;11.65;60.30;99173.77;114514;1206;103137;-76
2021/04/01 01:07:42;;;;;;;37.00;19.50;;;;;;;11.64;60.05;99163.22;114445;1206;103136;-76
2021/04/01 01:10:13;;;;;;;36.45;18.75;;;;;;;11.63;60.28;99157.05;114470;1206;103261;-76
2021/04/01 01:12:40;;;;;;;29.50;17.30;;;;;;;11.64;60.25;99148.09;114509;1206;103082;-76
2021/04/01 01:15:08;;;;;;;33.43;17.80;;;;;;;11.65;60.38;99146.27;114479;1206;103158;-76
2021/04/01 01:17:37;;;;;;;36.65;19.85;;;;;;;11.65;60.28;99143.60;114503;1206;103059;-77
2021/04/01 01:20:08;;;;;;;30.65;16.60;;;;;;;11.66;60.51;99146.16;114534;1206;103602;-77
2021/04/01 01:22:38;;;;;;;29.33;17.17;;;;;;;11.65;60.42;99133.81;114479;1206;103085;-77
2021/04/01 01:25:09;;;;;;;33.03;18.53;;;;;;;11.67;60.38;99131.88;114522;1206;103082;-76
2021/04/01 01:27:40;;;;;;;33.20;19.25;;;;;;;11.70;60.56;99123.66;114478;1206;103258;-76
2021/04/01 01:30:14;;;;;;;30.80;18.25;;;;;;;11.72;60.49;99121.72;114518;1209;103088;-75
2021/04/01 01:32:44;;;;;;;32.00;20.00;;;;;;;11.73;60.53;99112.77;114097;1209;103057;-77
2021/04/01 01:35:19;;;;;;;32.80;18.65;;;;;;;11.73;60.56;99118.09;114461;1206;103124;-75
2021/04/01 01:37:58;;;;;;;33.50;19.20;;;;;;;11.75;60.62;99112.63;114449;1206;103166;-76
2021/04/01 01:40:27;;;;;;;29.60;18.60;;;;;;;11.75;60.69;99121.48;114457;1206;103181;-75
2021/04/01 01:42:56;;;;;;;33.50;19.57;;;;;;;11.75;60.70;99116.16;114448;1209;103178;-75
2021/04/01 01:45:25;;;;;;;30.70;18.90;;;;;;;11.76;60.84;99115.19;114498;1206;103315;-75
2021/04/01 01:47:52;;;;;;;30.60;19.10;;;;;;;11.75;60.79;99101.97;114485;1206;103060;-75
2021/04/01 01:50:22;;;;;;;35.75;19.75;;;;;;;11.74;60.76;99101.14;114524;1206;103153;-76
2021/04/01 01:52:51;;;;;;;36.45;19.90;;;;;;;11.75;60.89;99101.97;114490;1206;103088;-73
2021/04/01 01:55:19;;;;;;;33.00;19.70;;;;;;;11.74;60.83;99101.14;114518;1206;103102;-74
2021/04/01 01:57:46;;;;;;;33.50;20.20;;;;;;;11.74;60.90;99092.28;114513;1206;103158;-75
2021/04/01 02:00:20;;;;;;;36.40;19.30;;;;;;;11.74;61.26;99095.81;114483;1209;103164;-75
2021/04/01 02:02:55;;;;;;;31.40;18.90;;;;;;;11.73;60.96;99088.78;114496;1206;103054;-75
2021/04/01 02:05:24;;;;;;;31.65;19.60;;;;;;;11.72;60.93;99087.08;114494;1206;103165;-75
2021/04/01 02:07:52;;;;;;;34.15;19.70;;;;;;;11.72;61.05;99084.42;114529;1206;103140;-75
2021/04/01 02:10:31;;;;;;;29.50;17.55;;;;;;;11.70;61.05;99085.48;114534;1206;103059;-75
2021/04/01 02:12:59;;;;;;;33.60;18.70;;;;;;;11.68;61.11;99085.62;114497;1206;103114;-74
2021/04/01 02:15:29;;;;;;;31.90;18.60;;;;;;;11.66;61.01;99087.55;114523;1206;103088;-74
2021/04/01 02:18:10;;;;;;;35.20;18.30;;;;;;;11.68;61.13;99077.63;114507;1206;103095;-74
2021/04/01 02:20:41;;;;;;;32.45;18.60;;;;;;;11.68;61.09;99079.42;114513;1206;103153;-74
2021/04/01 02:23:14;;;;;;;34.20;20.05;;;;;;;11.69;61.09;99071.33;114484;1206;103095;-73
2021/04/01 02:25:42;;;;;;;30.75;18.50;;;;;;;11.71;61.26;99065.86;114482;1206;103127;-74
2021/04/01 02:28:11;;;;;;;31.55;19.10;;;;;;;11.70;61.21;99062.38;114516;1206;103054;-75
2021/04/01 02:30:41;;;;;;;33.10;18.60;;;;;;;11.70;61.40;99064.17;114515;1206;103085;-74
2021/04/01 02:33:09;;;;;;;29.00;18.20;;;;;;;11.73;61.38;99064.80;114530;1206;103050;-75
2021/04/01 02:35:37;;;;;;;32.35;19.20;;;;;;;11.74;61.55;99058.50;114505;1206;103223;-75
2021/04/01 02:38:06;;;;;;;32.35;19.80;;;;;;;11.76;61.41;99058.37;114490;1206;103079;-76
2021/04/01 02:40:35;;;;;;;32.00;18.50;;;;;;;11.76;61.49;99050.38;114489;1206;103083;-76
2021/04/01 02:43:03;;;;;;;32.50;19.35;;;;;;;11.76;61.52;99055.70;114499;1206;103130;-75
2021/04/01 02:45:31;;;;;;;29.90;17.95;;;;;;;11.78;61.43;99052.94;114536;1206;103213;-75
2021/04/01 02:47:58;;;;;;;31.00;18.50;;;;;;;11.77;61.68;99054.73;114502;1206;103265;-76
2021/04/01 02:50:26;;;;;;;29.40;17.70;;;;;;;11.76;61.46;99055.70;114493;1206;103670;-75
2021/04/01 02:52:53;;;;;;;32.00;19.10;;;;;;;11.75;61.54;99059.33;114502;1206;103102;-75
2021/04/01 02:55:21;;;;;;;30.77;18.77;;;;;;;11.73;61.68;99055.94;114498;1206;103070;-73
2021/04/01 02:57:48;;;;;;;34.15;19.05;;;;;;;11.73;61.78;99054.14;114505;1209;103121;-73
2021/04/01 03:00:22;;;;;;;30.05;18.15;;;;;;;11.71;61.59;99050.74;114422;1206;103214;-74
2021/04/01 03:03:00;;;;;;;33.70;19.20;;;;;;;11.71;61.75;99047.22;114425;1209;103216;-74
2021/04/01 03:05:27;;;;;;;33.40;19.35;;;;;;;11.72;61.72;99047.11;114464;1206;103213;-74
2021/04/01 03:07:54;;;;;;;34.90;19.75;;;;;;;11.74;61.78;99047.84;114465;1206;103272;-74
2021/04/01 03:10:22;;;;;;;34.25;19.25;;;;;;;11.71;61.71;99042.75;114459;1206;103165;-74
2021/04/01 03:12:49;;;;;;;41.70;20.25;;;;;;;11.68;61.72;99036.80;114509;1206;103184;-75
2021/04/01 03:15:16;;;;;;;33.90;20.20;;;;;;;11.65;61.64;99039.70;114482;1206;103114;-75
2021/04/01 03:17:43;;;;;;;31.50;18.90;;;;;;;11.60;62.08;99034.73;114516;1206;103168;-75
2021/04/01 03:20:12;;;;;;;30.60;19.75;;;;;;;11.57;61.75;99032.30;114524;1206;103137;-75
2021/04/01 03:22:40;;;;;;;30.45;19.00;;;;;;;11.55;61.97;99026.25;114536;1206;103057;-74
2021/04/01 03:25:12;;;;;;;34.30;20.00;;;;;;;11.55;61.98;99026.25;114516;1209;103171;-74
2021/04/01 03:27:40;;;;;;;33.35;20.40;;;;;;;11.57;62.00;99026.98;114491;1206;103485;-74
2021/04/01 03:30:11;;;;;;;31.30;19.75;;;;;;;11.57;61.92;99022.52;114525;1206;103137;-76
2021/04/01 03:32:45;;;;;;;31.90;18.83;;;;;;;11.55;61.98;99015.59;114505;1206;103101;-74
2021/04/01 03:35:13;;;;;;;;;;;;;;;11.47;62.33;99008.20;114562;1214;103088;-74
2021/04/01 03:37:42;;;;;;;30.40;18.80;;;;;;;11.41;62.15;99016.67;114517;1206;103312;-74
2021/04/01 03:40:11;;;;;;;33.50;19.85;;;;;;;11.40;62.09;99012.30;114503;1206;103188;-74
2021/04/01 03:42:39;;;;;;;35.10;19.45;;;;;;;11.38;62.06;99027.55;114536;1206;103057;-73
2021/04/01 03:45:09;;;;;;;31.50;19.20;;;;;;;11.34;62.02;99023.42;114528;1206;103156;-74
2021/04/01 03:47:41;;;;;;;31.80;19.20;;;;;;;11.30;62.13;99013.01;114532;1206;103164;-76
2021/04/01 03:50:12;;;;;;;32.60;21.05;;;;;;;11.30;62.19;99013.01;114539;1206;103123;-73
2021/04/01 03:52:41;;;;;;;32.75;20.80;;;;;;;11.26;62.39;99014.20;114482;1206;103233;-76
2021/04/01 03:57:40;;;;;;;37.57;20.57;;;;;;;11.23;62.40;99009.11;114548;1206;103165;-73
2021/04/01 04:00:18;;;;;;;36.90;20.50;;;;;;;11.23;62.35;99000.30;114493;1206;103156;-74
2021/04/01 04:05:43;;;;;;;33.50;19.10;;;;;;;11.21;62.53;99004.88;114498;1208;103108;-74
2021/04/01 04:08:21;;;;;;;31.03;19.07;;;;;;;11.20;62.57;99000.52;114529;1209;103092;-74
2021/04/01 04:13:25;;;;;;;32.40;19.00;;;;;;;11.16;62.94;98992.77;114518;1208;103097;-74
2021/04/01 04:15:54;;;;;;;32.07;20.00;;;;;;;11.19;62.69;98998.83;114502;1206;103194;-75
2021/04/01 04:18:21;;;;;;;30.10;20.20;;;;;;;11.15;62.80;98996.39;114497;1206;103130;-76
2021/04/01 04:20:48;;;;;;;33.90;20.55;;;;;;;11.15;62.81;98993.73;114478;1209;103047;-74
2021/04/01 04:23:17;;;;;;;34.25;18.15;;;;;;;11.15;63.11;98992.91;114422;1207;103098;-74
2021/04/01 04:25:44;;;;;;;33.80;19.60;;;;;;;11.11;62.90;99002.09;114478;1208;103114;-75
2021/04/01 04:30:57;;;;;;;31.00;18.80;;;;;;;11.04;63.06;98993.70;114458;1206;103082;-73
2021/04/01 04:33:24;;;;;;;32.50;20.00;;;;;;;11.02;63.03;98995.63;114418;1206;103082;-73
2021/04/01 04:35:51;;;;;;;34.40;19.70;;;;;;;11.01;63.21;98991.27;114471;1206;103082;-74
2021/04/01 04:38:19;;;;;;;34.15;19.80;;;;;;;10.99;63.12;98987.91;114468;1206;103063;-73
2021/04/01 04:40:47;;;;;;;30.85;18.75;;;;;;;11.00;63.23;98986.94;114531;1206;103088;-73
2021/04/01 04:43:14;;;;;;;31.90;19.80;;;;;;;10.98;62.99;98986.20;114424;1206;103149;-72
2021/04/01 04:45:41;;;;;;;33.60;18.50;;;;;;;10.96;63.34;98983.64;114416;1208;103161;-72
2021/04/01 04:48:09;;;;;;;31.60;19.20;;;;;;;10.94;63.27;98979.41;114443;1208;103162;-74
2021/04/01 04:50:36;;;;;;;33.97;19.67;;;;;;;10.93;63.31;98977.72;114503;1206;103060;-72
2021/04/01 04:53:05;;;;;;;32.40;20.30;;;;;;;10.90;63.41;98977.95;114484;1206;103162;-74
2021/04/01 04:55:32;;;;;;;33.65;20.55;;;;;;;10.89;63.48;98973.59;114474;1204;103169;-74
2021/04/01 05:05:56;;;;;;;35.63;19.30;;;;;;;10.94;63.59;98964.28;114440;1206;103175;-78
2021/04/01 05:08:23;;;;;;;30.70;18.50;;;;;;;10.94;63.57;98963.45;114333;1208;103107;-73
2021/04/01 05:10:52;;;;;;;32.70;19.15;;;;;;;10.93;63.51;98973.23;114403;1209;103543;-75
2021/04/01 05:13:20;;;;;;;31.80;19.20;;;;;;;10.94;63.55;98972.27;114480;1206;103085;-75
2021/04/01 05:15:48;;;;;;;32.40;20.25;;;;;;;10.94;63.75;98966.11;114398;1206;103099;-75
2021/04/01 05:18:28;;;;;;;34.45;20.95;;;;;;;10.95;63.58;98967.80;114473;1209;103172;-76
2021/04/01 05:20:59;;;;;;;34.50;20.15;;;;;;;10.95;63.75;98963.31;114415;1206;103103;-77
2021/04/01 05:26:52;;;;;;;30.00;16.80;;;;;;;10.99;63.92;98955.97;114408;1209;103082;-76
2021/04/01 05:28:47;;;;;;;31.20;19.15;;;;;;;10.99;63.67;98954.14;114328;1206;103155;-76
2021/04/01 05:31:29;;;;;;;32.45;18.45;;;;;;;11.02;63.82;98953.91;114449;1206;103086;-77
2021/04/01 05:33:58;;;;;;;32.00;20.17;;;;;;;11.07;63.72;98947.38;114415;1206;103111;-77
2021/04/01 05:36:27;;;;;;;33.60;20.30;;;;;;;11.12;63.98;98953.20;114449;1206;103159;-76
2021/04/01 05:38:57;;;;;;;35.30;20.70;;;;;;;11.19;63.80;98949.11;114445;1206;103166;-76
2021/04/01 05:41:27;;;;;;;33.20;18.80;;;;;;;11.23;63.96;98944.38;114482;1206;103166;-73
2021/04/01 05:49:24;;;;;;;35.15;21.70;;;;;;;11.31;64.26;98941.98;114482;1206;103082;-75
2021/04/01 05:55:35;;;;;;;33.95;20.40;;;;;;;11.41;64.22;98931.45;114506;1206;103095;-77
2021/04/01 06:03:42;;;;;;;37.35;22.05;;;;;;;11.51;64.16;98929.77;114235;1206;103162;-74
2021/04/01 06:06:13;;;;;;;36.30;21.10;;;;;;;11.57;64.30;98929.28;114433;1206;103050;-74
2021/04/01 06:08:50;;;;;;;37.50;21.00;;;;;;;11.62;64.32;98927.07;114458;1206;103083;-75
2021/04/01 06:11:20;;;;;;;36.00;20.55;;;;;;;11.71;64.49;98927.31;114411;1206;103161;-75
2021/04/01 06:14:07;;;;;;;35.45;22.40;;;;;;;11.78;64.51;98927.69;114420;1206;103159;-76
2021/04/01 06:16:37;;;;;;;37.03;22.33;;;;;;;11.87;64.64;98922.46;114414;1206;103514;-75
2021/04/01 06:19:08;;;;;;;34.10;20.80;;;;;;;11.96;64.58;98923.53;114440;1206;103050;-76
2021/04/01 06:21:40;;;;;;;36.50;22.50;;;;;;;12.05;64.92;98925.48;114476;1206;103155;-75
2021/04/01 06:24:26;;;;;;;36.50;21.43;;;;;;;12.18;64.80;98925.33;114438;1206;103587;-81
2021/04/01 06:27:32;;;;;;;36.50;22.00;;;;;;;12.29;64.76;98926.27;114540;1206;103098;-82
2021/04/01 06:33:10;;;;;;;36.10;20.50;;;;;;;12.49;64.82;98919.29;113998;1209;103328;-82
2021/04/01 06:35:49;;;;;;;34.30;19.20;;;;;;;12.57;64.74;98914.17;113959;1209;103296;-82
2021/04/01 06:38:25;;;;;;;35.85;20.30;;;;;;;12.68;64.91;98925.73;114184;1209;103322;-82
2021/04/01 06:40:58;;;;;;;33.77;19.67;;;;;;;12.75;64.63;98914.44;114527;1206;103161;-81
2021/04/01 06:43:48;;;;;;;34.80;19.10;;;;;;;12.85;64.79;98911.83;114575;1206;103155;-80
2021/04/01 06:46:19;;;;;;;37.10;21.20;;;;;;;12.96;64.80;98913.58;114540;1206;103571;-81
2021/04/01 06:51:36;;;;;;;32.30;20.20;;;;;;;13.11;64.66;98914.09;114497;1206;103098;-83
2021/04/01 06:54:29;;;;;;;32.55;20.55;;;;;;;13.20;64.61;98907.13;114526;1206;103263;-83
2021/04/01 06:57:45;;;;;;;30.05;19.50;;;;;;;13.31;64.70;98899.01;114543;1208;103241;-84
2021/04/01 07:00:22;;;;;;;35.07;19.13;;;;;;;13.39;64.84;98901.87;114512;1206;103124;-83
2021/04/01 07:03:12;;;;;;;31.30;19.40;;;;;;;13.50;64.94;98898.28;114541;1206;103059;-82
2021/04/01 07:05:51;;;;;;;32.25;20.15;;;;;;;13.60;64.94;98897.48;114571;1206;103156;-82
2021/04/01 07:08:36;;;;;;;34.05;20.10;;;;;;;13.68;64.74;98889.63;114522;1209;103162;-83
2021/04/01 07:11:08;;;;;;;37.35;21.60;;;;;;;13.75;64.80;98885.44;114558;1206;103059;-81
2021/04/01 07:13:43;;;;;;;31.70;19.00;;;;;;;13.82;64.66;98888.40;114453;1206;103081;-80
2021/04/01 07:16:33;;;;;;;34.15;22.35;;;;;;;13.90;64.98;98893.91;114557;1209;103098;-80
2021/04/01 07:30:46;;;;;;;35.80;18.90;;;;;;;14.28;64.89;98884.25;114537;1209;103200;-79
2021/04/01 07:46:32;;;;;;;25.90;15.40;;;;;;;21.63;61.76;98839.86;113880;1209;103216;-80
2021/04/01 07:49:04;;;;;;;28.10;15.40;;;;;;;22.52;61.15;98842.47;114246;1209;103165;-79
2021/04/01 07:54:10;;;;;;;23.90;14.03;;;;;;;23.66;61.33;98836.97;114417;1206;103159;-79
2021/04/01 07:56:49;;;;;;;25.00;14.30;;;;;;;24.08;60.91;98826.89;114423;1209;103082;-78
2021/04/01 07:59:28;;;;;;;22.60;13.20;;;;;;;24.54;61.00;98833.45;114421;1206;103098;-78
2021/04/01 08:04:27;;;;;;;24.60;14.40;;;;;;;25.22;60.20;98820.65;114443;1206;103098;-79
2021/04/01 08:07:12;;;;;;;23.55;13.15;;;;;;;25.65;60.12;98819.27;114434;1206;103086;-78
2021/04/01 08:09:43;;;;;;;24.40;13.40;;;;;;;26.11;60.25;98818.17;114480;1206;103076;-77
2021/04/01 08:12:33;;;;;;;23.00;14.00;;;;;;;26.33;59.67;98815.11;114431;1209;103085;-77
2021/04/01 08:15:07;;;;;;;24.60;14.60;;;;;;;26.58;59.16;98809.67;114410;1206;103344;-78
2021/04/01 08:20:45;;;;;;;23.05;13.90;;;;;;;26.77;58.77;98809.73;114005;1212;101446;-77
2021/04/01 08:23:40;;;;;;;22.45;13.55;;;;;;;26.84;58.17;98804.23;113860;1212;103357;-77
2021/04/01 08:35:36;;;;;;;21.83;12.90;;;;;;;27.75;57.45;98795.46;114432;1206;103082;-78
2021/04/01 08:38:25;;;;;;;21.60;11.40;;;;;;;27.82;57.28;98792.63;114468;1206;103156;-78
2021/04/01 08:41:36;;;;;;;21.05;11.10;;;;;;;28.12;57.23;98787.19;114459;1206;103175;-77
2021/04/01 08:45:05;;;;;;;19.00;10.13;;;;;;;28.46;56.80;98783.93;114202;1206;103204;-73
2021/04/01 08:48:30;;;;;;;21.05;11.10;;;;;;;28.62;55.57;98779.66;114347;1206;103069;-75
2021/04/01 08:51:26;;;;;;;22.55;11.65;;;;;;;28.61;55.14;98781.55;114007;1206;103092;-78
2021/04/01 08:54:11;;;;;;;20.80;10.50;;;;;;;28.72;54.84;98771.70;114361;1206;103153;-76
2021/04/01 08:56:56;;;;;;;21.20;11.15;;;;;;;28.72;54.79;98771.70;114408;1206;103101;-78
2021/04/01 08:59:37;;;;;;;20.45;10.65;;;;;;;28.79;54.63;98766.94;114401;1206;103264;-76
2021/04/01 09:02:06;;;;;;;22.30;11.80;;;;;;;28.81;53.79;98763.98;114456;1209;103117;-77
2021/04/01 09:04:33;;;;;;;18.20;10.10;;;;;;;28.91;54.04;98771.58;114434;1209;103076;-74
2021/04/01 09:07:10;;;;;;;20.10;10.20;;;;;;;29.01;53.77;98755.39;114460;1209;103085;-77
2021/04/01 09:09:39;;;;;;;19.20;10.35;;;;;;;29.07;53.25;98757.17;114496;1206;103053;-75
2021/04/01 09:12:32;;;;;;;19.85;11.05;;;;;;;29.15;53.10;98761.44;115252;1206;103582;-72
2021/04/01 09:15:16;;;;;;;21.00;11.20;;;;;;;29.25;52.97;98756.19;114425;1207;103194;-73
2021/04/01 09:17:46;;;;;;;20.05;11.05;;;;;;;29.25;52.11;98747.97;114649;1206;103116;-69
2021/04/01 09:20:21;;;;;;;19.90;9.90;;;;;;;29.39;51.89;98755.92;115823;1206;101141;-72
2021/04/01 09:22:59;;;;;;;20.45;10.80;;;;;;;29.58;52.14;98750.27;115828;1206;102561;-72
2021/04/01 09:25:38;;;;;;;18.73;9.33;;;;;;;29.74;51.61;98744.02;115795;1208;101109;-74
2021/04/01 09:28:09;;;;;;;22.00;11.40;;;;;;;29.38;50.77;98743.30;114944;1206;103516;-75
2021/04/01 09:30:38;;;;;;;19.30;10.10;;;;;;;29.16;51.00;98743.94;114416;1206;103153;-78
2021/04/01 09:33:10;;;;;;;20.40;11.00;;;;;;;29.17;50.48;98740.13;114401;1206;103216;-73
2021/04/01 09:35:45;;;;;;;20.10;10.30;;;;;;;28.97;49.63;98741.34;114425;1206;103150;-77
2021/04/01 09:38:13;;;;;;;21.55;11.05;;;;;;;28.70;49.32;98743.73;114395;1209;103196;-77
2021/04/01 09:40:46;;;;;;;20.85;10.65;;;;;;;28.77;49.55;98740.90;114364;1206;103099;-77
2021/04/01 09:43:16;;;;;;;19.70;11.00;;;;;;;28.99;49.47;98732.90;114370;1209;103155;-77
2021/04/01 09:45:48;;;;;;;17.05;9.20;;;;;;;29.18;49.67;98724.52;114365;1209;103142;-76
2021/04/01 09:48:18;;;;;;;;;;;;;;;29.09;48.03;98721.33;114438;1214;103213;-76
2021/04/01 09:50:47;;;;;;;22.30;9.80;;;;;;;29.02;48.75;98716.00;114461;1206;103197;-78
2021/04/01 09:53:23;;;;;;;20.50;9.80;;;;;;;28.72;48.23;98716.97;114455;1206;103158;-77
2021/04/01 09:55:55;;;;;;;18.50;9.40;;;;;;;28.23;48.51;98711.72;114413;1206;103101;-77
2021/04/01 09:58:40;;;;;;;16.45;8.70;;;;;;;27.79;48.14;98711.97;114410;1206;103112;-76
2021/04/01 10:04:21;;;;;;;19.40;10.35;;;;;;;26.94;47.66;98711.78;114414;1209;103197;-75
2021/04/01 10:06:51;;;;;;;22.15;8.90;;;;;;;26.53;47.28;98707.78;114369;1206;103152;-76
2021/04/01 10:09:24;;;;;;;18.85;8.20;;;;;;;26.29;47.22;98715.74;114416;1207;103085;-76
2021/04/01 10:11:53;;;;;;;21.10;9.70;;;;;;;26.02;46.99;98713.22;114438;1206;103312;-75
2021/04/01 10:14:21;;;;;;;22.30;9.85;;;;;;;25.66;46.65;98710.13;114400;1206;103184;-75
2021/04/01 10:17:07;;;;;;;21.63;9.63;;;;;;;25.47;46.62;98709.19;114416;1206;103060;-76
2021/04/01 10:19:44;;;;;;;20.90;9.10;;;;;;;25.40;46.10;98705.63;114439;1206;103091;-75
2021/04/01 10:22:28;;;;;;;20.75;9.90;;;;;;;25.25;46.58;98695.84;114470;1206;103529;-75
2021/04/01 10:30:17;;;;;;;;;;;;;;;24.99;45.82;98685.09;114357;1214;103322;-76
2021/04/01 10:33:02;;;;;;;19.90;9.50;;;;;;;24.98;45.96;98684.23;114328;1206;103105;-78
2021/04/01 10:35:36;;;;;;;20.00;9.90;;;;;;;24.91;45.88;98669.82;114392;1206;103194;-77
2021/04/01 10:38:06;;;;;;;18.70;8.20;;;;;;;24.85;45.50;98662.55;114378;1206;103098;-90
2021/04/01 10:40:35;;;;;;;23.20;9.60;;;;;;;24.87;45.56;98666.71;114666;1206;103047;-89
2021/04/01 10:43:10;;;;;;;22.60;10.00;;;;;;;24.79;45.42;98658.78;114536;1206;103898;-74
2021/04/01 10:45:44;;;;;;;20.95;9.90;;;;;;;24.79;45.26;98654.19;114365;1206;103181;-73
2021/04/01 10:48:25;;;;;;;19.30;9.00;;;;;;;24.77;44.97;98653.57;114427;1206;103102;-75
2021/04/01 10:51:02;;;;;;;19.95;9.25;;;;;;;24.64;45.22;98653.57;114146;1206;103158;-72
2021/04/01 10:53:32;;;;;;;20.00;8.50;;;;;;;24.63;44.92;98650.03;114340;1206;103284;-71
2021/04/01 10:56:06;;;;;;;22.05;8.95;;;;;;;24.55;44.57;98638.53;114392;1209;103095;-73
2021/04/01 10:58:35;;;;;;;19.03;8.30;;;;;;;24.46;44.80;98633.32;114442;1206;103260;-73
2021/04/01 11:01:05;;;;;;;20.20;8.63;;;;;;;24.36;44.87;98632.95;114449;1206;103102;-72
2021/04/01 11:03:43;;;;;;;21.05;8.60;;;;;;;24.34;44.88;98626.89;114413;1206;103095;-71
2021/04/01 11:06:13;;;;;;;20.97;9.37;;;;;;;24.32;44.65;98620.83;114405;1206;103099;-73
2021/04/01 11:08:50;;;;;;;20.13;9.33;;;;;;;24.32;44.19;98618.11;114422;1206;103092;-83
2021/04/01 11:11:23;;;;;;;21.70;8.95;;;;;;;24.22;44.39;98613.94;114459;1208;102319;-74
2021/04/01 11:13:51;;;;;;;20.75;9.30;;;;;;;24.04;43.88;98617.31;113737;1206;103299;-73
2021/04/01 11:16:20;;;;;;;19.40;8.90;;;;;;;23.91;43.87;98617.28;114800;1206;101669;-74
2021/04/01 11:18:50;;;;;;;19.85;8.30;;;;;;;23.78;44.12;98618.13;113743;1207;103156;-84
2021/04/01 11:21:20;;;;;;;16.65;7.95;;;;;;;23.70;44.10;98607.46;113590;1206;103791;-74
2021/04/01 11:23:47;;;;;;;19.33;9.07;;;;;;;23.61;44.22;98604.98;113927;1206;103108;-75
2021/04/01 11:26:14;;;;;;;20.80;8.90;;;;;;;23.60;44.24;98608.73;113816;1206;103680;-78
2021/04/01 11:28:50;;;;;;;22.60;9.90;;;;;;;23.61;44.23;98601.41;114332;1206;103050;-77
2021/04/01 11:31:33;;;;;;;22.73;10.13;;;;;;;23.61;43.75;98596.83;114143;1209;103158;-76
2021/04/01 11:34:01;;;;;;;22.90;9.60;;;;;;;23.57;43.87;98595.58;114176;1206;103249;-72
2021/04/01 11:36:37;;;;;;;25.47;11.63;;;;;;;23.55;43.51;98600.38;114408;1206;103053;-76
2021/04/01 11:39:39;;;;;;;22.75;10.65;;;;;;;23.48;43.24;98592.20;114344;1208;103197;-78
2021/04/01 11:41:59;;;;;;;24.90;11.20;;;;;;;23.37;43.12;98589.27;114481;1206;103124;-78
2021/04/01 11:44:27;;;;;;;25.20;11.70;;;;;;;23.33;43.01;98583.44;114414;1206;103082;-73
2021/04/01 11:46:55;;;;;;;27.23;13.17;;;;;;;23.29;43.03;98566.72;114405;1206;103200;-68
2021/04/01 11:49:23;;;;;;;26.00;13.10;;;;;;;23.16;43.08;98574.83;114404;1206;103050;-69
2021/04/01 11:51:50;;;;;;;31.00;11.80;;;;;;;23.07;43.10;98567.91;114354;1209;103088;-71
2021/04/01 11:54:25;;;;;;;31.20;12.10;;;;;;;23.04;43.08;98569.99;114383;1206;103086;-69
2021/04/01 11:56:52;;;;;;;27.23;10.97;;;;;;;23.04;42.94;98561.86;114758;1206;103067;-72
2021/04/01 11:59:29;;;;;;;26.70;11.20;;;;;;;23.05;42.08;98558.11;114352;1206;103551;-71
2021/04/01 12:02:07;;;;;;;27.15;11.50;;;;;;;22.97;42.21;98561.00;114375;1209;103078;-71
2021/04/01 12:04:37;;;;;;;25.10;12.30;;;;;;;22.94;42.32;98547.03;114319;1206;103049;-73
2021/04/01 15:03:59;;;;;;;;;;;;;;;21.39;38.25;98371.13;114718;1203;103053;-90
2021/04/01 15:06:30;;;;;;;27.65;12.80;;;;;;;21.37;38.33;98366.92;114841;1205;103091;-90
2021/04/01 15:09:00;;;;;;;26.97;13.27;;;;;;;21.34;38.54;98368.17;114704;1206;103050;-88
2021/04/01 15:11:32;;;;;;;30.93;13.93;;;;;;;21.33;38.27;98365.65;114693;1206;103284;-89
2021/04/01 15:13:59;;;;;;;28.40;12.90;;;;;;;21.31;38.36;98362.31;114879;1205;103166;-85
2021/04/01 15:16:26;;;;;;;28.40;13.87;;;;;;;21.30;38.43;98364.19;114638;1206;103156;-92
2021/04/01 15:18:55;;;;;;;32.50;13.90;;;;;;;21.29;38.23;98370.63;114662;1205;102234;-89
2021/04/01 15:21:24;;;;;;;28.80;13.50;;;;;;;21.26;38.18;98358.33;114695;1206;103123;-91
2021/04/01 15:23:51;;;;;;;29.80;14.70;;;;;;;21.22;38.17;98356.23;114624;1206;103177;-89
2021/04/01 15:26:20;;;;;;;30.33;15.23;;;;;;;21.15;38.23;98363.45;114594;1205;103059;-89
2021/04/01 15:28:50;;;;;;;33.30;14.55;;;;;;;21.12;38.17;98356.59;114566;1205;103185;-89
2021/04/01 15:31:19;;;;;;;35.75;14.85;;;;;;;21.09;38.21;98359.69;114750;1206;103216;-92
2021/04/01 15:33:49;;;;;;;29.70;15.43;;;;;;;21.05;38.06;98353.81;114634;1206;103149;-88
2021/04/01 15:36:20;;;;;;;29.35;14.45;;;;;;;21.02;38.21;98351.50;114680;1205;103123;-88
2021/04/01 15:38:52;;;;;;;31.30;14.50;;;;;;;21.00;38.02;98345.45;114688;1205;103149;-87
2021/04/01 15:41:19;;;;;;;30.87;14.33;;;;;;;20.96;37.96;98352.31;114584;1205;103067;-73
2021/04/01 15:43:46;;;;;;;32.40;14.25;;;;;;;20.93;38.13;98347.30;114488;1206;103155;-72
2021/04/01 15:46:14;;;;;;;30.50;14.40;;;;;;;20.90;38.16;98353.92;114441;1206;103092;-73
2021/04/01 15:48:44;;;;;;;31.80;15.75;;;;;;;20.89;37.96;98346.84;114338;1206;103101;-75
2021/04/01 15:51:12;;;;;;;33.40;15.13;;;;;;;20.90;38.07;98353.09;114432;1206;103149;-77
2021/04/01 15:53:39;;;;;;;30.90;15.00;;;;;;;20.85;38.05;98348.27;114381;1206;103159;-71
2021/04/01 15:56:07;;;;;;;33.50;16.30;;;;;;;20.83;38.02;98353.02;114410;1206;103053;-71
2021/04/01 15:58:36;;;;;;;30.03;14.03;;;;;;;20.80;38.06;98348.86;114420;1206;103140;-72